Time;durP1;ratioP1;P1;durP2;ratioP2;P2;SDS_P1;SDS_P2;PMS_P1;PMS_P2;Temp;Humidity;BMP_temperature;BMP_pressure;BME280_temperature;BME280_humidity;BME280_pressure;Samples;Min_cycle;Max_cycle;Signal;HPM_P1;HPM_P2
2022/03/23 00:01:28;;;;;;;30.05;13.95;;;;;;;7.29;74.21;102985.69;5095267;28;20519;-67
2022/03/23 00:03:57;;;;;;;26.90;13.63;;;;;;;7.33;72.82;102989.13;5095122;28;20460;-67
2022/03/23 00:06:27;;;;;;;30.75;13.95;;;;;;;7.38;71.85;102980.31;5095264;28;20055;-67
2022/03/23 00:08:55;;;;;;;26.10;12.88;;;;;;;7.45;71.09;102987.16;5095183;28;20087;-67
2022/03/23 00:11:24;;;;;;;26.50;14.02;;;;;;;7.48;70.35;102988.00;5095276;28;20109;-67
2022/03/23 00:13:52;;;;;;;25.83;13.23;;;;;;;7.50;70.19;102986.19;5095101;28;20055;-67
2022/03/23 00:16:21;;;;;;;29.33;13.55;;;;;;;7.51;69.25;102983.59;5094988;28;20487;-66
2022/03/23 00:18:49;;;;;;;28.67;13.00;;;;;;;7.54;68.97;102991.38;5093460;28;20048;-66
2022/03/23 00:21:17;;;;;;;28.20;13.18;;;;;;;7.56;68.99;102986.97;5094984;28;20441;-66
2022/03/23 00:23:47;;;;;;;29.27;14.05;;;;;;;7.56;68.64;102989.56;5094488;28;20048;-67
2022/03/23 00:26:16;;;;;;;27.20;13.07;;;;;;;7.56;68.99;102992.19;5094553;28;20051;-67
2022/03/23 00:28:44;;;;;;;25.30;11.93;;;;;;;7.56;68.57;102996.59;5094943;28;20097;-67
2022/03/23 00:31:12;;;;;;;34.90;13.80;;;;;;;7.55;68.58;102998.34;5094699;28;20048;-67
2022/03/23 00:33:40;;;;;;;25.52;12.75;;;;;;;7.56;68.85;103000.06;5094858;28;20387;-67
2022/03/23 00:36:11;;;;;;;29.85;13.30;;;;;;;7.54;69.28;102991.38;5093394;28;20112;-66
2022/03/23 00:38:41;;;;;;;27.15;13.13;;;;;;;7.49;69.58;102998.44;5094720;28;20055;-66
2022/03/23 00:41:12;;;;;;;28.63;14.13;;;;;;;7.44;69.16;102995.91;5094439;28;20355;-67
2022/03/23 00:43:43;;;;;;;28.80;13.98;;;;;;;7.39;70.53;102991.63;5094054;28;20044;-67
2022/03/23 00:46:12;;;;;;;25.60;12.35;;;;;;;7.39;69.67;102991.63;5094120;28;20040;-67
2022/03/23 00:48:40;;;;;;;25.88;12.88;;;;;;;7.37;69.33;102990.81;5094118;28;20051;-67
2022/03/23 00:51:08;;;;;;;25.02;13.23;;;;;;;7.34;69.60;102996.09;5093971;28;20407;-66
2022/03/23 00:53:36;;;;;;;24.55;12.85;;;;;;;7.31;70.06;102989.16;5094074;28;20044;-66
2022/03/23 00:56:06;;;;;;;29.73;13.80;;;;;;;7.18;71.04;102982.41;5093754;28;20396;-67
2022/03/23 00:58:35;;;;;;;28.92;13.63;;;;;;;7.14;71.85;102988.59;5093732;28;20048;-66
2022/03/23 01:01:04;;;;;;;30.27;13.40;;;;;;;7.14;71.06;102983.34;5094124;28;20052;-67
2022/03/23 01:03:33;;;;;;;31.30;14.40;;;;;;;7.17;70.54;102985.91;5094107;28;20048;-67
2022/03/23 01:06:01;;;;;;;32.65;14.50;;;;;;;7.26;70.87;102975.28;5093980;28;20491;-67
2022/03/23 01:08:29;;;;;;;26.70;14.10;;;;;;;7.22;70.44;102984.09;5094103;28;20051;-67
2022/03/23 01:10:58;;;;;;;27.38;13.35;;;;;;;7.18;71.06;102978.03;5094066;28;20055;-67
2022/03/23 01:13:26;;;;;;;26.70;13.80;;;;;;;7.18;71.48;102979.78;5094361;28;20490;-67
2022/03/23 01:15:55;;;;;;;24.85;12.65;;;;;;;7.17;71.47;102978.06;5093902;28;20120;-67
2022/03/23 01:18:24;;;;;;;30.48;13.32;;;;;;;7.16;71.91;102979.81;5093782;28;20047;-67
2022/03/23 01:20:52;;;;;;;29.95;14.07;;;;;;;7.17;71.08;102978.06;5093572;28;20550;-67
2022/03/23 01:23:20;;;;;;;26.75;14.02;;;;;;;7.13;71.19;102979.00;5093615;28;20048;-67
2022/03/23 01:25:49;;;;;;;28.88;14.00;;;;;;;7.12;71.86;102983.38;5093724;28;20079;-67
2022/03/23 01:28:17;;;;;;;28.70;13.77;;;;;;;7.09;71.40;102978.19;5093332;28;20063;-67
2022/03/23 01:30:45;;;;;;;28.30;14.23;;;;;;;7.06;72.22;102975.63;5093417;28;20082;-66
2022/03/23 01:33:14;;;;;;;26.15;13.95;;;;;;;7.03;72.47;102970.44;5093715;28;20044;-66
2022/03/23 01:35:42;;;;;;;29.40;15.02;;;;;;;6.99;73.13;102971.38;5093547;28;20062;-66
2022/03/23 01:38:10;;;;;;;27.55;14.50;;;;;;;6.96;72.42;102972.28;5093589;28;20407;-67
2022/03/23 01:40:39;;;;;;;25.63;14.02;;;;;;;6.93;72.82;102962.72;5093439;28;20188;-66
2022/03/23 01:43:07;;;;;;;29.85;14.07;;;;;;;6.93;72.58;102967.97;5092031;28;20071;-66
2022/03/23 01:45:36;;;;;;;26.23;14.15;;;;;;;6.89;73.21;102961.06;5093597;28;20044;-66
2022/03/23 01:48:04;;;;;;;29.38;14.93;;;;;;;6.84;72.92;102962.88;5093221;28;20142;-66
2022/03/23 01:50:34;;;;;;;31.25;13.63;;;;;;;6.83;73.66;102962.91;5093086;28;20548;-66
2022/03/23 01:53:02;;;;;;;29.80;13.85;;;;;;;6.80;73.37;102958.56;5093083;28;20051;-66
2022/03/23 01:55:30;;;;;;;26.52;13.60;;;;;;;6.76;73.64;102963.00;5093056;28;20117;-67
2022/03/23 01:57:58;;;;;;;27.60;13.43;;;;;;;6.77;72.39;102962.09;5093261;28;20467;-66
2022/03/23 02:00:28;;;;;;;30.58;14.93;;;;;;;6.70;73.43;102957.84;5092992;28;20044;-67
2022/03/23 02:02:57;;;;;;;25.67;14.38;;;;;;;6.64;74.29;102954.47;5093252;28;20249;-66
2022/03/23 02:05:26;;;;;;;27.88;13.10;;;;;;;6.57;73.60;102958.91;5092962;28;20055;-66
2022/03/23 02:07:57;;;;;;;28.38;14.60;;;;;;;6.53;74.23;102952.91;5092954;28;20052;-67
2022/03/23 02:10:28;;;;;;;25.90;13.32;;;;;;;6.49;75.11;102955.56;5092570;28;20051;-67
2022/03/23 02:12:56;;;;;;;29.13;15.02;;;;;;;6.42;75.15;102949.53;5090961;28;20101;-67
2022/03/23 02:15:26;;;;;;;25.15;12.95;;;;;;;6.38;74.55;102950.47;5092712;28;20074;-66
2022/03/23 02:17:54;;;;;;;29.80;15.35;;;;;;;6.29;75.35;102950.63;5092266;28;20556;-67
2022/03/23 02:20:22;;;;;;;30.02;14.25;;;;;;;6.20;75.92;102957.72;5092343;28;20052;-67
2022/03/23 02:22:52;;;;;;;25.35;15.07;;;;;;;6.15;76.30;102943.81;5092286;28;20432;-67
2022/03/23 02:25:22;;;;;;;27.52;14.27;;;;;;;6.09;75.90;102947.41;5092667;28;20126;-67
2022/03/23 02:27:51;;;;;;;29.65;14.73;;;;;;;6.05;75.68;102945.69;5092677;28;20508;-66
2022/03/23 02:30:20;;;;;;;27.90;14.43;;;;;;;6.01;76.06;102945.75;5092537;28;20127;-67
2022/03/23 02:32:49;;;;;;;31.08;14.63;;;;;;;5.99;76.21;102944.91;5092697;28;20467;-67
2022/03/23 02:35:17;;;;;;;32.08;14.80;;;;;;;5.92;76.49;102941.47;5092413;28;20119;-66
2022/03/23 02:37:46;;;;;;;28.40;16.10;;;;;;;5.87;76.60;102951.97;5092437;28;20082;-66
2022/03/23 02:40:15;;;;;;;29.33;14.98;;;;;;;5.83;76.28;102954.63;5092365;28;20447;-67
2022/03/23 02:42:43;;;;;;;29.25;14.70;;;;;;;5.84;75.79;102952.00;5092247;28;20486;-67
2022/03/23 02:45:12;;;;;;;28.75;14.52;;;;;;;5.85;77.08;102951.13;5092420;28;20052;-66
2022/03/23 02:47:41;;;;;;;34.30;15.73;;;;;;;5.80;76.98;102947.69;5092031;28;20079;-66
2022/03/23 02:50:10;;;;;;;31.98;16.52;;;;;;;5.76;77.11;102948.63;5092339;28;20051;-66
2022/03/23 03:01:52;;;;;;;32.03;15.70;;;;;;;5.72;78.57;102949.53;5092291;28;20092;-66
2022/03/23 03:03:59;;;;;;;30.60;15.75;;;;;;;5.54;77.57;102958.44;5090575;28;20044;-66
2022/03/23 03:06:27;;;;;;;33.53;16.85;;;;;;;5.52;78.10;102962.78;5092110;28;20081;-65
2022/03/23 03:08:55;;;;;;;28.30;16.08;;;;;;;5.52;77.63;102961.06;5092099;28;20055;-66
2022/03/23 03:11:25;;;;;;;31.25;16.70;;;;;;;5.51;77.41;102950.63;5092190;28;20371;-66
2022/03/23 03:13:53;;;;;;;30.60;16.20;;;;;;;5.48;77.24;102964.59;5092242;28;20043;-66
2022/03/23 03:16:22;;;;;;;36.08;16.90;;;;;;;5.48;77.53;102954.13;5091876;28;20048;-66
2022/03/23 03:18:50;;;;;;;38.38;17.13;;;;;;;5.50;77.62;102959.34;5091935;28;20670;-67
2022/03/23 03:21:18;;;;;;;30.13;17.00;;;;;;;5.51;78.96;102961.94;5090592;28;20044;-66
2022/03/23 03:23:47;;;;;;;31.77;16.33;;;;;;;5.44;80.28;102962.00;5091714;28;20670;-66
2022/03/23 03:26:17;;;;;;;34.58;17.20;;;;;;;5.35;81.23;102965.56;5091979;28;20075;-67
2022/03/23 03:28:49;;;;;;;30.80;16.40;;;;;;;5.33;80.41;102968.19;5091963;28;20055;-66
2022/03/23 03:31:17;;;;;;;30.40;16.15;;;;;;;5.30;79.66;102969.97;5092018;28;20066;-66
2022/03/23 03:33:46;;;;;;;28.80;15.57;;;;;;;5.22;79.64;102963.06;5091837;28;20522;-67
2022/03/23 03:36:15;;;;;;;33.38;15.00;;;;;;;5.18;79.62;102964.00;5091934;28;20128;-67
2022/03/23 03:38:45;;;;;;;32.15;16.60;;;;;;;5.20;80.63;102963.97;5090340;28;20499;-66
2022/03/23 03:41:13;;;;;;;30.45;16.67;;;;;;;5.14;80.52;102962.28;5090335;28;20387;-58
2022/03/23 03:43:42;;;;;;;31.48;15.30;;;;;;;5.12;79.76;102964.03;5091372;28;20048;-66
2022/03/23 03:46:11;;;;;;;30.95;15.75;;;;;;;5.04;80.27;102958.84;5091262;28;20040;-61
2022/03/23 03:48:41;;;;;;;28.52;15.07;;;;;;;5.00;80.56;102967.59;5091967;28;20097;-58
2022/03/23 03:51:10;;;;;;;29.58;16.95;;;;;;;4.99;80.15;102963.28;5091524;28;20474;-57
2022/03/23 03:53:38;;;;;;;30.02;15.27;;;;;;;4.95;79.97;102964.16;5092070;28;20371;-66
2022/03/23 03:56:09;;;;;;;33.35;17.35;;;;;;;4.95;80.19;102960.69;5092478;28;20051;-66
2022/03/23 03:58:38;;;;;;;29.65;15.65;;;;;;;4.94;80.05;102970.25;5093461;28;20052;-66
2022/03/23 04:01:07;;;;;;;29.00;15.90;;;;;;;4.91;80.25;102970.28;5095977;28;20050;-66
2022/03/23 04:03:37;;;;;;;38.17;17.85;;;;;;;4.86;80.03;102965.09;5098619;28;20517;-58
2022/03/23 04:06:07;;;;;;;29.95;15.35;;;;;;;4.84;80.20;102972.06;5098397;28;20028;-58
2022/03/23 04:08:35;;;;;;;30.80;16.63;;;;;;;4.79;79.82;102976.44;5094641;28;20050;-57
2022/03/23 04:11:04;;;;;;;33.55;16.92;;;;;;;4.80;79.71;102975.56;5094591;28;20135;-67
2022/03/23 04:13:33;;;;;;;29.42;15.82;;;;;;;4.77;79.51;102974.72;5095088;28;20502;-57
2022/03/23 04:16:01;;;;;;;28.58;16.45;;;;;;;4.81;79.79;102976.44;5094498;28;20048;-57
2022/03/23 04:18:29;;;;;;;29.30;15.77;;;;;;;4.74;79.90;102986.03;5094826;28;20036;-67
2022/03/23 04:21:00;;;;;;;27.80;15.82;;;;;;;4.73;79.78;102976.47;5100137;28;20043;-66
2022/03/23 04:23:33;;;;;;;31.83;15.43;;;;;;;4.73;79.84;102972.16;5096384;28;20075;-57
2022/03/23 04:26:02;;;;;;;34.40;16.73;;;;;;;4.69;79.95;102980.88;5094511;28;20093;-58
2022/03/23 04:28:30;;;;;;;32.38;16.92;;;;;;;4.69;79.89;102985.19;5094694;28;20036;-57
2022/03/23 04:31:01;;;;;;;33.95;16.70;;;;;;;4.64;80.12;102987.84;5096330;28;20048;-65
2022/03/23 04:33:31;;;;;;;32.78;16.83;;;;;;;4.59;80.53;102987.00;5095294;28;20055;-66
2022/03/23 04:36:01;;;;;;;31.67;15.73;;;;;;;4.61;80.27;102989.59;5095666;28;20051;-57
2022/03/23 04:38:29;;;;;;;36.28;17.65;;;;;;;4.61;80.11;102982.66;5093798;28;20558;-57
2022/03/23 04:40:58;;;;;;;31.50;16.50;;;;;;;4.62;79.70;102988.72;5094083;28;20040;-57
2022/03/23 04:43:26;;;;;;;32.92;16.40;;;;;;;4.73;79.27;102984.28;5093858;28;20415;-58
2022/03/23 04:45:54;;;;;;;31.52;16.73;;;;;;;4.69;79.13;102993.91;5094191;28;20044;-57
2022/03/23 04:48:22;;;;;;;36.78;16.73;;;;;;;4.68;79.19;102994.75;5094291;28;20135;-57
2022/03/23 04:50:51;;;;;;;35.55;17.15;;;;;;;4.67;78.95;102995.63;5094154;28;20056;-57
2022/03/23 04:53:21;;;;;;;32.47;16.83;;;;;;;4.65;79.03;102988.69;5094171;28;20113;-58
2022/03/23 04:55:49;;;;;;;35.05;17.83;;;;;;;4.65;79.23;102991.28;5093858;28;20052;-58
2022/03/23 04:58:18;;;;;;;33.40;16.65;;;;;;;4.61;79.43;102995.69;5093708;28;20135;-57
2022/03/23 05:00:46;;;;;;;36.28;18.70;;;;;;;4.60;79.22;102996.56;5093970;28;20052;-57
2022/03/23 05:03:14;;;;;;;33.72;17.80;;;;;;;4.57;79.64;102994.81;5093974;28;20066;-58
2022/03/23 05:05:43;;;;;;;34.08;17.65;;;;;;;4.55;79.59;103001.81;5093562;28;20058;-58
2022/03/23 05:08:12;;;;;;;30.85;16.05;;;;;;;4.55;79.46;103001.81;5093261;28;20119;-57
2022/03/23 05:10:41;;;;;;;34.90;16.52;;;;;;;4.57;79.30;103004.41;5093287;28;20526;-57
2022/03/23 05:13:11;;;;;;;33.13;18.08;;;;;;;4.54;79.73;102999.16;5093631;28;20050;-57
2022/03/23 05:15:39;;;;;;;29.70;17.27;;;;;;;4.51;79.89;103000.09;5093620;28;20123;-57
2022/03/23 05:18:08;;;;;;;29.65;16.58;;;;;;;4.50;79.69;103003.56;5093572;28;20117;-57
2022/03/23 05:20:36;;;;;;;31.80;16.58;;;;;;;4.49;79.97;103000.97;5093490;28;20097;-58
2022/03/23 05:23:04;;;;;;;32.92;17.13;;;;;;;4.46;79.91;103000.97;5093306;28;20063;-57
2022/03/23 05:25:32;;;;;;;35.47;18.25;;;;;;;4.40;79.88;103005.34;5093490;28;20115;-57
2022/03/23 05:28:02;;;;;;;34.67;17.83;;;;;;;4.35;80.10;103008.81;5093339;28;20059;-57
2022/03/23 05:30:30;;;;;;;31.52;17.23;;;;;;;4.35;80.14;103001.88;5093371;28;20075;-57
2022/03/23 05:32:58;;;;;;;34.28;17.85;;;;;;;4.34;80.39;103007.97;5092161;28;20067;-58
2022/03/23 05:35:26;;;;;;;36.85;18.85;;;;;;;4.34;80.64;103012.31;5093522;28;20521;-57
2022/03/23 05:37:54;;;;;;;32.53;16.63;;;;;;;4.35;80.61;103012.31;5093202;28;20040;-58
2022/03/23 05:40:23;;;;;;;33.58;18.13;;;;;;;4.35;80.63;103014.03;5093395;28;20554;-58
2022/03/23 05:42:52;;;;;;;34.63;18.00;;;;;;;4.31;80.97;103022.72;5093193;28;20052;-66
2022/03/23 05:45:25;;;;;;;32.17;16.97;;;;;;;4.31;81.14;103023.63;5093108;28;20044;-65
2022/03/23 05:47:54;;;;;;;36.25;17.35;;;;;;;4.35;81.87;103025.34;5093318;28;20539;-65
2022/03/23 05:50:22;;;;;;;35.80;18.73;;;;;;;4.27;83.20;103021.00;5093134;28;20040;-66
2022/03/23 05:52:50;;;;;;;35.60;18.60;;;;;;;4.27;83.02;103026.22;5093019;28;20119;-66
2022/03/23 05:55:18;;;;;;;35.17;17.40;;;;;;;4.21;83.22;103025.41;5093061;28;20044;-66
2022/03/23 05:57:46;;;;;;;35.40;18.05;;;;;;;4.22;83.44;103031.47;5092993;28;20052;-66
2022/03/23 06:00:15;;;;;;;36.58;19.30;;;;;;;4.23;82.97;103028.84;5092634;28;20056;-66
2022/03/23 06:02:49;;;;;;;33.80;17.23;;;;;;;4.25;83.21;103034.06;5091463;28;20052;-66
2022/03/23 06:05:18;;;;;;;36.42;19.05;;;;;;;4.32;83.29;103030.56;5092393;28;20040;-65
2022/03/23 06:07:46;;;;;;;34.95;18.60;;;;;;;4.32;83.16;103037.50;5092544;28;20052;-57
2022/03/23 06:10:14;;;;;;;38.65;19.02;;;;;;;4.34;83.27;103035.78;5092584;28;20036;-57
2022/03/23 06:12:42;;;;;;;38.88;18.73;;;;;;;4.34;83.10;103034.03;5092658;28;20055;-57
2022/03/23 06:15:11;;;;;;;40.05;18.83;;;;;;;4.35;83.30;103034.88;5092278;28;20548;-57
2022/03/23 06:17:39;;;;;;;36.72;18.40;;;;;;;4.34;83.76;103038.38;5092141;28;20176;-57
2022/03/23 06:20:10;;;;;;;34.55;19.27;;;;;;;4.37;83.13;103038.34;5092725;28;20048;-57
2022/03/23 06:22:38;;;;;;;32.65;17.58;;;;;;;4.39;83.21;103042.69;5091756;28;20140;-58
2022/03/23 06:25:08;;;;;;;40.65;19.23;;;;;;;4.39;84.00;103045.28;5092731;28;20419;-58
2022/03/23 06:27:36;;;;;;;35.83;18.27;;;;;;;4.40;84.01;103043.53;5092791;28;20486;-57
2022/03/23 06:30:06;;;;;;;33.05;18.38;;;;;;;4.43;84.08;103043.56;5092386;28;20051;-58
2022/03/23 06:32:34;;;;;;;34.42;17.88;;;;;;;4.49;84.03;103043.50;5092553;28;20054;-58
2022/03/23 06:35:04;;;;;;;34.83;19.65;;;;;;;4.55;83.92;103046.09;5092209;28;20487;-57
2022/03/23 06:37:34;;;;;;;35.83;18.08;;;;;;;4.61;84.06;103052.13;5092749;28;20055;-58
2022/03/23 06:40:03;;;;;;;35.45;18.92;;;;;;;4.76;84.10;103053.81;5091990;28;20134;-57
2022/03/23 06:42:31;;;;;;;36.28;18.05;;;;;;;4.82;84.03;103054.63;5092261;28;20384;-58
2022/03/23 06:45:01;;;;;;;31.45;18.02;;;;;;;4.84;83.49;103055.50;5092061;28;20040;-58
2022/03/23 06:47:29;;;;;;;39.15;18.88;;;;;;;4.89;84.18;103052.88;5092078;28;20044;-57
2022/03/23 06:49:57;;;;;;;37.08;17.33;;;;;;;4.93;84.59;103053.72;5091944;28;20051;-57
2022/03/23 06:52:32;;;;;;;37.33;17.75;;;;;;;4.94;84.23;103060.69;5092058;28;20079;-58
2022/03/23 06:55:01;;;;;;;39.88;18.33;;;;;;;4.97;84.34;103058.03;5091954;28;20040;-58
2022/03/23 06:57:29;;;;;;;35.50;18.88;;;;;;;5.03;84.02;103060.59;5092088;28;20060;-58
2022/03/23 06:59:57;;;;;;;33.00;18.40;;;;;;;5.07;83.63;103067.53;5091659;28;20451;-58
2022/03/23 07:02:25;;;;;;;40.15;18.90;;;;;;;5.18;81.49;103067.44;5091901;28;20040;-58
2022/03/23 07:04:53;;;;;;;42.85;20.45;;;;;;;5.40;79.47;103068.19;5090393;28;20070;-58
2022/03/23 07:07:24;;;;;;;36.15;19.08;;;;;;;5.58;77.59;103060.19;5091907;28;20516;-58
2022/03/23 07:09:52;;;;;;;35.85;19.83;;;;;;;5.69;77.21;103067.06;5091760;28;20036;-57
2022/03/23 07:12:21;;;;;;;45.08;20.23;;;;;;;5.80;76.87;103065.22;5091928;28;20071;-57
2022/03/23 07:14:49;;;;;;;48.05;21.20;;;;;;;5.92;75.75;103070.31;5091926;28;20487;-57
2022/03/23 07:17:18;;;;;;;41.92;21.35;;;;;;;5.97;75.91;103072.91;5091748;28;20548;-58
2022/03/23 07:19:46;;;;;;;39.00;20.50;;;;;;;6.16;75.07;103070.97;5091602;28;20682;-57
2022/03/23 07:22:15;;;;;;;41.22;21.08;;;;;;;6.25;74.81;103073.47;5091561;28;20093;-58
2022/03/23 07:24:44;;;;;;;43.75;20.92;;;;;;;6.38;75.23;103076.81;5091633;28;20040;-57
2022/03/23 07:27:14;;;;;;;46.78;22.45;;;;;;;6.74;73.79;103076.38;5091864;28;20040;-58
2022/03/23 07:29:48;;;;;;;43.00;22.15;;;;;;;6.85;72.58;103071.00;5091666;28;20056;-66
2022/03/23 07:32:16;;;;;;;44.92;22.25;;;;;;;6.93;73.13;103072.59;5091525;28;20180;-65
2022/03/23 07:34:47;;;;;;;47.08;21.45;;;;;;;7.12;71.52;103072.34;5094441;28;20434;-66
2022/03/23 07:37:16;;;;;;;41.50;21.17;;;;;;;7.28;71.43;103067.75;5095850;28;20048;-66
2022/03/23 07:39:44;;;;;;;46.45;23.30;;;;;;;7.56;68.99;103078.63;5098393;28;20047;-58
2022/03/23 07:42:14;;;;;;;44.08;24.30;;;;;;;7.94;67.71;103073.59;5094925;28;20048;-57
2022/03/23 07:44:42;;;;;;;44.05;22.83;;;;;;;8.24;66.81;103076.53;5095411;28;20498;-57
2022/03/23 07:47:11;;;;;;;46.05;23.35;;;;;;;8.47;66.56;103070.84;5095184;28;20093;-57
2022/03/23 07:49:40;;;;;;;47.83;23.00;;;;;;;8.55;64.81;103071.56;5095277;28;20134;-57
2022/03/23 07:52:08;;;;;;;41.60;22.40;;;;;;;8.72;63.24;103073.81;5095421;28;20050;-57
2022/03/23 07:54:36;;;;;;;40.53;22.10;;;;;;;8.95;63.35;103078.53;5095202;28;20082;-57
2022/03/23 07:57:05;;;;;;;39.90;22.50;;;;;;;9.20;62.58;103074.50;5095139;28;20528;-57
2022/03/23 07:59:35;;;;;;;45.70;22.33;;;;;;;9.40;62.38;103077.50;5093547;28;20117;-57
2022/03/23 08:02:03;;;;;;;39.95;21.60;;;;;;;9.63;61.44;103076.91;5095402;28;20410;-57
2022/03/23 08:04:32;;;;;;;39.05;21.23;;;;;;;9.80;60.95;103076.50;5095331;28;20448;-58
2022/03/23 08:07:01;;;;;;;37.30;20.85;;;;;;;10.03;61.76;103076.78;5094610;28;20044;-58
2022/03/23 08:09:30;;;;;;;39.78;20.90;;;;;;;10.20;58.65;103087.69;5093063;28;20514;-58
2022/03/23 08:11:58;;;;;;;32.72;20.27;;;;;;;10.37;59.56;103081.97;5094927;28;20483;-57
2022/03/23 08:14:29;;;;;;;33.33;19.40;;;;;;;10.66;58.75;103088.16;5094907;28;20056;-57
2022/03/23 08:16:58;;;;;;;32.83;18.55;;;;;;;10.98;58.44;103076.63;5094702;28;20479;-58
2022/03/23 08:19:26;;;;;;;29.48;17.88;;;;;;;11.37;58.27;103082.44;5094765;28;20498;-57
2022/03/23 08:21:55;;;;;;;35.97;18.92;;;;;;;11.44;57.67;103084.00;5094630;28;20449;-57
2022/03/23 08:24:23;;;;;;;33.85;17.63;;;;;;;11.73;57.68;103084.78;5094175;28;20066;-58
2022/03/23 08:26:51;;;;;;;34.33;19.88;;;;;;;11.93;57.78;103081.41;5092774;28;20036;-58
2022/03/23 08:29:19;;;;;;;33.38;19.55;;;;;;;12.16;57.77;103086.78;5094248;28;20052;-58
2022/03/23 08:31:47;;;;;;;30.38;18.33;;;;;;;12.27;56.14;103083.75;5094548;28;20130;-58
2022/03/23 08:34:17;;;;;;;34.53;19.50;;;;;;;12.39;54.42;103086.84;5094536;28;20048;-58
2022/03/23 08:36:45;;;;;;;29.63;18.65;;;;;;;12.63;51.71;103091.19;5094913;28;20513;-58
2022/03/23 08:39:14;;;;;;;30.08;18.23;;;;;;;12.88;54.29;103087.59;5094540;28;20135;-57
2022/03/23 08:41:42;;;;;;;32.25;20.23;;;;;;;12.96;53.18;103090.78;5094443;28;20059;-57
2022/03/23 08:44:10;;;;;;;34.63;21.20;;;;;;;12.95;51.59;103083.81;5094359;28;20098;-58
2022/03/23 08:46:39;;;;;;;39.08;20.95;;;;;;;13.24;51.46;103087.06;5093685;28;20051;-58
2022/03/23 08:49:07;;;;;;;30.88;20.48;;;;;;;13.28;51.13;103093.94;5094136;28;20097;-57
2022/03/23 08:51:36;;;;;;;30.90;19.60;;;;;;;13.38;51.24;103088.31;5094166;28;20040;-59
2022/03/23 08:54:05;;;;;;;34.75;21.85;;;;;;;13.54;50.93;103089.38;5093958;28;20384;-57
2022/03/23 08:56:33;;;;;;;31.70;20.40;;;;;;;13.72;51.32;103092.19;5093993;28;20047;-59
2022/03/23 08:59:01;;;;;;;34.75;20.63;;;;;;;13.88;51.11;103085.28;5093976;28;20515;-59
2022/03/23 09:01:29;;;;;;;34.08;20.83;;;;;;;14.06;49.99;103083.63;5094079;28;20044;-57
2022/03/23 09:04:01;;;;;;;30.85;20.75;;;;;;;14.29;50.99;103090.53;5093846;28;20052;-58
2022/03/23 09:06:29;;;;;;;33.13;21.15;;;;;;;14.51;49.83;103087.75;5093693;28;20058;-58
2022/03/23 09:08:58;;;;;;;35.78;21.00;;;;;;;14.67;49.54;103087.94;5093870;28;20449;-58
2022/03/23 09:11:26;;;;;;;36.22;20.35;;;;;;;14.81;49.78;103083.78;5093749;28;20046;-58
2022/03/23 09:13:55;;;;;;;34.45;20.65;;;;;;;15.02;49.18;103087.16;5093357;28;20094;-58
2022/03/23 09:16:23;;;;;;;35.75;20.40;;;;;;;15.13;47.23;103084.00;5093294;28;20078;-58
2022/03/23 09:18:51;;;;;;;32.92;20.98;;;;;;;15.35;46.95;103089.09;5093533;28;20048;-59
2022/03/23 09:21:20;;;;;;;35.13;20.52;;;;;;;15.45;46.51;103084.19;5093719;28;20048;-58
2022/03/23 09:23:48;;;;;;;31.42;20.88;;;;;;;15.66;45.42;103088.38;5093675;28;20500;-58
2022/03/23 09:26:18;;;;;;;30.73;20.92;;;;;;;15.61;45.44;103085.13;5092261;28;20068;-58
2022/03/23 09:28:46;;;;;;;34.47;21.20;;;;;;;15.78;43.28;103084.25;5093417;28;20518;-59
2022/03/23 09:31:14;;;;;;;31.02;20.70;;;;;;;16.15;44.70;103090.31;5093315;28;20083;-58
2022/03/23 09:33:43;;;;;;;32.20;21.02;;;;;;;16.34;43.25;103087.50;5093333;28;20052;-58
2022/03/23 09:37:47;;;;;;;34.22;20.00;;;;;;;16.57;41.22;103088.06;5092709;28;20044;-58
2022/03/23 09:39:11;;;;;;;32.85;21.45;;;;;;;16.70;41.42;103083.78;5092519;28;20055;-58
2022/03/23 09:41:43;;;;;;;34.13;22.33;;;;;;;16.86;40.76;103080.25;5093025;28;20117;-58
2022/03/23 09:44:12;;;;;;;39.80;25.13;;;;;;;17.13;39.14;103087.66;5092906;28;20055;-58
2022/03/23 09:46:41;;;;;;;38.70;23.25;;;;;;;17.19;39.69;103081.94;5092998;28;20406;-58
2022/03/23 09:49:09;;;;;;;34.92;23.00;;;;;;;17.33;39.06;103076.69;5093524;28;20048;-58
2022/03/23 09:51:40;;;;;;;36.08;23.45;;;;;;;17.52;38.16;103070.28;5093123;28;20502;-58
2022/03/23 09:54:08;;;;;;;35.05;23.85;;;;;;;17.82;38.12;103069.38;5093002;28;20082;-58
2022/03/23 09:56:36;;;;;;;38.22;24.95;;;;;;;17.70;38.32;103068.34;5092828;28;20048;-58
2022/03/23 09:59:06;;;;;;;36.88;23.30;;;;;;;18.02;38.78;103082.34;5092331;28;20055;-58
2022/03/23 10:02:17;;;;;;;37.58;23.80;;;;;;;18.11;36.55;103072.94;5092789;28;20148;-58
2022/03/23 10:05:29;;;;;;;30.45;20.92;;;;;;;18.37;35.24;103079.28;5092638;28;20040;-59
2022/03/23 10:08:18;;;;;;;35.80;23.70;;;;;;;18.52;36.50;103080.13;5091274;28;20476;-58
2022/03/23 10:11:54;;;;;;;30.50;20.85;;;;;;;18.71;35.91;103085.13;5092707;28;20097;-59
2022/03/23 10:15:23;;;;;;;33.25;21.23;;;;;;;19.03;34.74;103079.56;5092690;28;20039;-58
2022/03/23 10:18:10;;;;;;;31.75;21.52;;;;;;;19.07;34.35;103070.41;5072807;28;20499;-58
2022/03/23 10:20:38;;;;;;;33.05;21.80;;;;;;;19.36;34.47;103072.03;5092555;28;20044;-58
2022/03/23 10:23:10;;;;;;;33.13;22.38;;;;;;;19.57;33.52;103067.91;5092365;28;20051;-58
2022/03/23 10:25:40;;;;;;;37.15;23.77;;;;;;;19.80;33.90;103072.66;5092367;28;20049;-58
2022/03/23 10:28:13;;;;;;;34.00;22.38;;;;;;;19.90;33.13;103069.22;5092189;28;20040;-58
2022/03/23 10:30:44;;;;;;;33.95;22.52;;;;;;;20.13;33.56;103063.25;5092200;28;20059;-58
2022/03/23 10:33:20;;;;;;;33.55;22.70;;;;;;;20.27;32.62;103060.44;5092485;28;20055;-58
2022/03/23 10:35:48;;;;;;;34.05;22.05;;;;;;;20.43;32.55;103062.84;5092226;28;20505;-58
2022/03/23 10:38:17;;;;;;;32.17;21.88;;;;;;;20.59;31.75;103066.13;5092080;28;20044;-58
2022/03/23 10:40:49;;;;;;;32.47;22.85;;;;;;;20.72;31.52;103059.91;5092243;28;20118;-57
2022/03/23 10:43:21;;;;;;;30.65;22.90;;;;;;;20.82;31.64;103060.06;5092093;28;20044;-57
2022/03/23 10:45:53;;;;;;;32.05;22.38;;;;;;;20.74;32.16;103064.16;5092111;28;20055;-58
2022/03/23 10:48:21;;;;;;;31.65;22.27;;;;;;;21.14;30.34;103060.31;5091822;28;20055;-58
2022/03/23 10:50:53;;;;;;;33.25;23.42;;;;;;;21.37;32.35;103050.53;5091989;28;20491;-58
2022/03/23 10:53:32;;;;;;;34.13;23.33;;;;;;;21.59;32.11;103046.25;5092063;28;20052;-58
2022/03/23 10:56:01;;;;;;;34.42;23.48;;;;;;;21.74;32.05;103041.50;5092053;28;20516;-58
2022/03/23 10:58:32;;;;;;;33.60;22.52;;;;;;;22.04;31.69;103043.56;5091426;28;20059;-58
2022/03/23 11:01:04;;;;;;;34.28;23.23;;;;;;;21.90;29.50;103042.00;5091621;28;20052;-58
2022/03/23 11:03:38;;;;;;;32.15;22.55;;;;;;;21.65;29.82;103037.75;5091772;28;20117;-57
2022/03/23 11:06:08;;;;;;;30.90;22.17;;;;;;;21.70;30.48;103046.25;5091698;28;20150;-58
2022/03/23 11:08:36;;;;;;;32.75;21.77;;;;;;;21.78;30.64;103041.13;5092530;28;20056;-58
2022/03/23 11:16:53;;;;;;;29.63;20.23;;;;;;;22.38;27.13;103034.69;5088104;28;20048;-59
2022/03/23 11:19:26;;;;;;;29.55;20.75;;;;;;;22.55;26.88;103041.34;5095812;28;20063;-58
2022/03/23 11:22:02;;;;;;;28.35;21.13;;;;;;;22.59;28.16;103032.06;5095779;28;20681;-58
2022/03/23 11:24:33;;;;;;;26.20;20.20;;;;;;;22.84;27.20;103030.91;5095894;28;20119;-58
2022/03/23 11:27:01;;;;;;;27.30;19.60;;;;;;;23.06;26.08;103029.09;5095582;28;20079;-58
2022/03/23 11:29:32;;;;;;;26.70;19.83;;;;;;;23.01;25.00;103029.47;5096061;28;20067;-58
2022/03/23 11:32:07;;;;;;;30.17;19.92;;;;;;;23.05;25.48;103030.06;5095942;28;20036;-58
2022/03/23 11:34:38;;;;;;;25.60;19.80;;;;;;;23.41;25.23;103025.22;5095683;28;20044;-58
2022/03/23 11:37:08;;;;;;;30.02;20.70;;;;;;;23.33;25.60;103030.41;5095815;28;20059;-58
2022/03/23 11:39:36;;;;;;;29.35;20.40;;;;;;;23.50;25.43;103032.50;5095030;28;20558;-58
2022/03/23 11:42:06;;;;;;;28.63;20.02;;;;;;;23.37;24.86;103021.97;5094794;28;20081;-58